createdAt,value
2023-02-13T00:01:40.800Z,969.25
2023-02-13T00:04:08.037Z,843.40
2023-02-13T00:06:35.208Z,843.72
2023-02-13T00:09:03.356Z,844.78
2023-02-13T00:11:31.217Z,843.13
2023-02-13T00:13:59.078Z,964.85
2023-02-13T00:16:26.316Z,965.33
2023-02-13T00:18:53.602Z,837.60
2023-02-13T00:21:20.863Z,966.22
2023-02-13T00:23:48.098Z,961.60
2023-02-13T00:26:18.792Z,828.60
2023-02-13T00:28:46.388Z,828.85
2023-02-13T00:31:19.936Z,960.83
2023-02-13T00:33:47.573Z,955.50
2023-02-13T00:36:17.750Z,836.47
2023-02-13T00:38:45.318Z,840.50
2023-02-13T00:41:13.262Z,835.03
2023-02-13T00:43:40.584Z,968.38
2023-02-13T00:46:07.838Z,963.63
2023-02-13T00:48:35.595Z,838.80
2023-02-13T00:51:03.259Z,964.63
2023-02-13T00:53:30.600Z,966.60
2023-02-13T00:55:57.892Z,835.40
2023-02-13T00:58:25.378Z,838.40
2023-02-13T01:00:54.053Z,960.88
2023-02-13T01:03:21.862Z,841.65
2023-02-13T01:05:49.494Z,963.58
2023-02-13T01:08:17.897Z,957.20
2023-02-13T01:10:46.984Z,832.28
2023-02-13T01:13:15.960Z,829.15
2023-02-13T01:15:45.404Z,839.53
2023-02-13T01:18:20.011Z,832.00
2023-02-13T01:20:57.761Z,958.80
2023-02-13T01:23:25.337Z,825.83
2023-02-13T01:25:52.768Z,947.17
2023-02-13T01:28:19.974Z,820.22
2023-02-13T01:30:53.655Z,952.08
2023-02-13T01:33:20.965Z,823.75
2023-02-13T01:35:48.153Z,814.17
2023-02-13T01:38:15.405Z,938.70
2023-02-13T01:40:50.188Z,809.22
2023-02-13T01:43:17.672Z,938.58
2023-02-13T01:45:48.653Z,941.08
2023-02-13T01:48:21.181Z,938.38
2023-02-13T01:51:05.256Z,812.53
2023-02-13T01:53:36.265Z,810.75
2023-02-13T01:56:13.535Z,809.65
2023-02-13T01:58:43.748Z,809.95
2023-02-13T02:01:11.748Z,943.70
2023-02-13T02:03:47.892Z,811.30
2023-02-13T02:06:31.264Z,937.05
2023-02-13T02:12:04.839Z,936.97
2023-02-13T02:14:32.248Z,808.00
2023-02-13T02:16:59.693Z,807.10
2023-02-13T02:19:49.505Z,939.22
2023-02-13T02:22:34.256Z,812.70
2023-02-13T02:25:10.267Z,811.38
2023-02-13T02:27:43.401Z,942.35
2023-02-13T02:33:25.189Z,806.17
2023-02-13T02:36:31.146Z,807.63
2023-02-13T02:39:14.498Z,809.17
2023-02-13T02:44:26.877Z,805.20
2023-02-13T02:47:34.460Z,945.40
2023-02-13T02:50:07.385Z,811.63
2023-02-13T02:52:43.093Z,934.25
2023-02-13T02:55:15.669Z,812.53
2023-02-13T02:58:14.063Z,940.60
2023-02-13T03:01:02.288Z,942.45
2023-02-13T03:03:59.870Z,943.92
2023-02-13T03:06:34.821Z,814.45
2023-02-13T03:09:23.593Z,808.15
2023-02-13T03:12:12.183Z,944.45
2023-02-13T03:14:39.544Z,811.00
2023-02-13T03:17:25.949Z,811.88
2023-02-13T03:20:20.429Z,806.22
2023-02-13T03:22:57.983Z,941.85
2023-02-13T03:25:39.839Z,814.28
2023-02-13T03:28:25.589Z,811.92
2023-02-13T03:30:53.011Z,941.42
2023-02-13T03:33:30.838Z,809.25
2023-02-13T03:36:24.875Z,810.40
2023-02-13T03:38:52.098Z,939.85
2023-02-13T03:41:25.267Z,812.42
2023-02-13T03:46:42.106Z,936.75
2023-02-13T03:49:34.652Z,808.00
2023-02-13T03:52:43.366Z,923.58
2023-02-13T03:55:36.164Z,926.30
2023-02-13T03:58:33.946Z,803.92
2023-02-13T04:01:05.191Z,927.55
2023-02-13T04:04:08.472Z,932.05
2023-02-13T04:06:53.255Z,798.60
2023-02-13T04:09:20.825Z,805.22
2023-02-13T04:12:01.938Z,936.20
2023-02-13T04:14:40.795Z,930.03
2023-02-13T04:17:14.530Z,931.03
2023-02-13T04:19:42.086Z,940.38
2023-02-13T04:22:11.538Z,937.72
2023-02-13T04:24:38.776Z,939.03
2023-02-13T04:27:05.981Z,936.25
2023-02-13T04:29:33.190Z,809.45
2023-02-13T04:32:00.413Z,934.00
2023-02-13T04:34:27.673Z,808.42
2023-02-13T04:36:54.851Z,815.00
2023-02-13T04:39:22.091Z,807.22
2023-02-13T04:41:49.302Z,811.85
2023-02-13T04:44:16.510Z,933.58
2023-02-13T04:46:43.719Z,808.05
2023-02-13T04:49:11.401Z,933.63
2023-02-13T04:51:38.613Z,796.70
2023-02-13T04:54:05.834Z,920.05
2023-02-13T04:56:35.260Z,936.83
2023-02-13T04:59:02.480Z,810.85
2023-02-13T05:01:30.077Z,809.17
2023-02-13T05:03:57.296Z,807.70
2023-02-13T05:06:24.488Z,933.88
2023-02-13T05:08:51.724Z,942.58
2023-02-13T05:11:18.891Z,806.25
2023-02-13T05:13:46.153Z,934.65
2023-02-13T05:16:13.376Z,933.33
2023-02-13T05:18:40.586Z,927.67
2023-02-13T05:21:26.378Z,933.95
2023-02-13T05:23:53.607Z,804.05
2023-02-13T05:26:20.973Z,928.65
2023-02-13T05:29:06.717Z,926.72
2023-02-13T05:31:34.120Z,927.95
2023-02-13T05:34:01.705Z,807.85
2023-02-13T05:36:28.926Z,927.13
2023-02-13T05:38:56.188Z,797.50
2023-02-13T05:41:23.465Z,939.40
2023-02-13T05:43:52.790Z,800.05
2023-02-13T05:46:20.088Z,798.92
2023-02-13T05:48:47.351Z,936.67
2023-02-13T05:51:14.549Z,927.30
2023-02-13T05:53:41.728Z,932.13
2023-02-13T05:56:08.872Z,933.83
2023-02-13T05:58:36.024Z,803.70
2023-02-13T06:01:03.211Z,802.30
2023-02-13T06:03:31.592Z,928.83
2023-02-13T06:05:59.269Z,926.20
2023-02-13T06:08:26.584Z,927.50
2023-02-13T06:10:53.943Z,801.17
2023-02-13T06:13:21.163Z,941.05
2023-02-13T06:15:48.510Z,810.10
2023-02-13T06:18:15.773Z,930.97
2023-02-13T06:20:42.964Z,798.20
2023-02-13T06:23:10.204Z,804.95
2023-02-13T06:25:37.429Z,800.70
2023-02-13T06:28:05.083Z,927.85
2023-02-13T06:30:32.626Z,929.90
2023-02-13T06:32:59.861Z,930.40
2023-02-13T06:35:27.403Z,806.67
2023-02-13T06:37:54.516Z,804.92
2023-02-13T06:40:21.726Z,930.83
2023-02-13T06:42:49.088Z,929.97
2023-02-13T06:45:16.612Z,928.35
2023-02-13T06:47:45.143Z,928.95
2023-02-13T06:50:12.951Z,797.70
2023-02-13T06:52:40.138Z,934.75
2023-02-13T06:55:07.439Z,922.38
2023-02-13T06:57:34.680Z,799.60
2023-02-13T07:00:05.796Z,791.22
2023-02-13T07:02:33.727Z,797.25
2023-02-13T07:05:01.493Z,925.05
2023-02-13T07:07:28.742Z,804.53
2023-02-13T07:09:56.311Z,927.10
2023-02-13T07:12:25.769Z,943.75
2023-02-13T07:14:52.975Z,825.25
2023-02-13T07:17:20.287Z,831.60
2023-02-13T07:19:47.524Z,823.28
2023-02-13T07:22:14.810Z,821.90
2023-02-13T07:24:42.106Z,951.03
2023-02-13T07:27:09.317Z,828.85
2023-02-13T07:29:36.510Z,819.38
2023-02-13T07:32:03.908Z,953.33
2023-02-13T07:34:31.719Z,826.65
2023-02-13T07:36:58.917Z,821.00
2023-02-13T07:39:26.092Z,821.75
2023-02-13T07:41:53.892Z,820.22
2023-02-13T07:44:22.179Z,949.80
2023-02-13T07:46:49.819Z,823.03
2023-02-13T07:49:17.240Z,822.75
2023-02-13T07:51:46.396Z,951.47
2023-02-13T07:54:13.629Z,825.95
2023-02-13T07:56:40.883Z,818.55
2023-02-13T07:59:08.218Z,830.67
2023-02-13T08:01:35.540Z,825.95
2023-02-13T08:04:02.841Z,826.58
2023-02-13T08:06:30.145Z,824.50
2023-02-13T08:09:17.050Z,953.95
2023-02-13T08:11:56.331Z,943.33
2023-02-13T08:14:27.337Z,951.13
2023-02-13T08:16:56.662Z,948.85
2023-02-13T08:19:24.250Z,828.88
2023-02-13T08:21:51.768Z,948.55
2023-02-13T08:24:19.205Z,952.83
2023-02-13T08:26:46.502Z,948.53
2023-02-13T08:29:14.013Z,955.58
2023-02-13T08:31:41.493Z,827.17
2023-02-13T08:34:08.863Z,952.90
2023-02-13T08:36:36.269Z,831.13
2023-02-13T08:39:03.698Z,960.50
2023-02-13T08:41:51.726Z,837.17
2023-02-13T08:44:18.995Z,833.63
2023-02-13T08:46:46.288Z,840.70
2023-02-13T08:49:13.547Z,975.55
2023-02-13T08:51:41.043Z,840.53
2023-02-13T08:54:08.264Z,847.33
2023-02-13T08:56:35.526Z,974.72
2023-02-13T08:59:02.752Z,842.05
2023-02-13T09:01:30.062Z,972.88
2023-02-13T09:03:57.269Z,971.75
2023-02-13T09:06:26.359Z,850.42
2023-02-13T09:08:53.878Z,854.47
2023-02-13T09:11:23.310Z,860.13
2023-02-13T09:13:50.844Z,855.47
2023-02-13T09:16:18.168Z,989.80
2023-02-13T09:18:47.660Z,989.72
2023-02-13T09:21:15.016Z,991.15
2023-02-13T09:23:42.442Z,860.20
2023-02-13T09:26:12.489Z,985.65
2023-02-13T09:28:40.468Z,851.03
2023-02-13T09:31:17.080Z,852.40
2023-02-13T09:33:46.021Z,978.00
2023-02-13T09:36:21.927Z,855.75
2023-02-13T09:39:07.567Z,974.97
2023-02-13T09:41:42.869Z,860.58
2023-02-13T09:44:33.137Z,860.05
2023-02-13T09:47:08.774Z,985.38
2023-02-13T09:49:40.345Z,861.28
2023-02-13T09:52:10.753Z,858.90
2023-02-13T09:54:38.084Z,859.22
2023-02-13T09:57:16.042Z,856.53
2023-02-13T10:00:03.793Z,974.15
2023-02-13T10:02:38.668Z,857.95
2023-02-13T10:05:05.990Z,969.80
2023-02-13T10:08:00.467Z,851.85
2023-02-13T10:10:40.144Z,852.03
2023-02-13T10:13:07.353Z,985.85
2023-02-13T10:15:38.675Z,988.90
2023-02-13T10:18:21.294Z,862.30
2023-02-13T10:21:26.649Z,982.35
2023-02-13T10:24:04.058Z,977.25
2023-02-13T10:26:45.813Z,869.03
2023-02-13T10:29:41.962Z,982.55
2023-02-13T10:32:20.447Z,858.67
2023-02-13T10:35:01.923Z,977.50
2023-02-13T10:37:29.903Z,862.00
2023-02-13T10:39:59.565Z,954.35
2023-02-13T10:42:41.969Z,964.55
2023-02-13T10:45:34.529Z,846.70
2023-02-13T10:48:15.214Z,964.63
2023-02-13T10:50:42.790Z,838.38
2023-02-13T11:00:57.467Z,840.60
2023-02-13T11:14:11.945Z,981.33
2023-02-13T11:16:44.391Z,840.58
2023-02-13T11:30:02.303Z,987.15
2023-02-13T11:43:49.786Z,1006.33
2023-02-13T11:49:01.686Z,1007.25
2023-02-13T11:51:55.472Z,1016.83
2023-02-13T11:57:50.991Z,1009.80
2023-02-13T12:00:37.988Z,873.20
2023-02-13T12:03:29.330Z,988.90
2023-02-13T12:06:06.526Z,1008.53
2023-02-13T12:08:36.994Z,1005.88
2023-02-13T12:11:25.110Z,873.03
2023-02-13T12:13:53.144Z,988.78
2023-02-13T12:16:41.563Z,973.00
2023-02-13T12:19:15.448Z,976.42
2023-02-13T12:21:56.173Z,969.92
2023-02-13T12:25:00.933Z,976.60
2023-02-13T12:27:31.184Z,992.10
2023-02-13T12:38:57.461Z,859.85
2023-02-13T13:36:49.869Z,847.25
2023-02-13T13:39:43.240Z,836.70
2023-02-13T13:42:35.713Z,226.75
2023-02-13T13:45:11.563Z,303.60
2023-02-13T13:47:41.904Z,132.60
2023-02-13T13:50:23.533Z,146.50
2023-02-13T13:53:19.667Z,191.90
2023-02-13T13:55:52.992Z,365.42
2023-02-13T13:58:24.433Z,505.20
2023-02-13T14:01:10.562Z,305.05
2023-02-13T14:03:39.160Z,622.50
2023-02-13T14:06:09.053Z,903.78
2023-02-13T14:08:44.652Z,205.80
2023-02-13T14:11:43.589Z,101.13
2023-02-13T14:14:31.802Z,10.18
2023-02-13T14:25:22.497Z,6.32
2023-02-13T14:28:17.322Z,5.88
2023-02-13T14:30:47.643Z,7.63
2023-02-13T14:33:41.346Z,9.00
2023-02-13T14:36:09.910Z,5.07
2023-02-13T14:38:37.393Z,5.88
2023-02-13T14:41:07.371Z,5.88
2023-02-13T14:43:36.913Z,6.72
2023-02-13T14:46:15.736Z,6.75
2023-02-13T14:51:43.195Z,7.47
2023-02-13T14:54:37.577Z,5.45
2023-02-13T14:57:14.684Z,6.25
2023-02-13T14:59:44.874Z,6.50
2023-02-13T15:02:28.673Z,5.82
2023-02-13T15:05:15.771Z,4.93
2023-02-13T15:07:47.407Z,5.20
2023-02-13T15:10:51.805Z,4.07
2023-02-13T15:13:33.287Z,5.30
